createdAt,value
2018-04-12T00:01:16.466Z,95.70
2018-04-12T00:03:44.627Z,96.20
2018-04-12T00:06:12.744Z,96.40
2018-04-12T00:08:40.878Z,96.50
2018-04-12T00:11:08.999Z,96.40
2018-04-12T00:13:37.277Z,96.60
2018-04-12T00:16:05.391Z,95.60
2018-04-12T00:18:33.533Z,95.60
2018-04-12T00:21:01.636Z,95.60
2018-04-12T00:23:29.787Z,95.20
2018-04-12T00:25:58.678Z,95.40
2018-04-12T00:28:27.573Z,95.20
2018-04-12T00:30:56.462Z,95.30
2018-04-12T00:33:25.366Z,95.50
2018-04-12T00:35:53.472Z,95.50
2018-04-12T00:38:21.614Z,95.50
2018-04-12T00:40:49.734Z,95.80
2018-04-12T00:43:17.870Z,95.80
2018-04-12T00:45:46.005Z,95.70
2018-04-12T00:48:14.142Z,95.40
2018-04-12T00:50:42.259Z,96.10
2018-04-12T00:53:10.462Z,99.90
2018-04-12T00:55:38.596Z,99.90
2018-04-12T00:58:06.749Z,99.90
2018-04-12T01:00:34.871Z,99.90
2018-04-12T01:03:03.047Z,99.90
2018-04-12T01:05:31.177Z,99.90
2018-04-12T01:07:59.323Z,99.90
2018-04-12T01:10:27.454Z,99.90
2018-04-12T01:12:56.356Z,99.90
2018-04-12T01:15:24.498Z,99.90
2018-04-12T01:17:52.647Z,99.90
2018-04-12T01:20:20.787Z,99.90
2018-04-12T01:22:48.929Z,99.90
2018-04-12T01:25:18.574Z,99.90
2018-04-12T01:27:46.735Z,99.90
2018-04-12T01:30:14.858Z,99.90
2018-04-12T01:32:43.067Z,99.90
2018-04-12T01:35:11.963Z,99.90
2018-04-12T01:37:40.862Z,99.90
2018-04-12T01:40:08.998Z,99.90
2018-04-12T01:42:37.109Z,99.90
2018-04-12T01:45:05.264Z,99.90
2018-04-12T01:47:34.140Z,99.90
2018-04-12T01:50:02.273Z,99.90
2018-04-12T01:52:30.388Z,99.90
2018-04-12T01:54:58.563Z,99.50
2018-04-12T01:57:26.678Z,99.60
2018-04-12T01:59:54.833Z,99.90
2018-04-12T02:02:23.718Z,99.90
2018-04-12T02:04:52.651Z,99.90
2018-04-12T02:07:20.763Z,99.90
2018-04-12T02:09:48.909Z,99.90
2018-04-12T02:12:17.150Z,99.90
2018-04-12T02:14:45.369Z,99.90
2018-04-12T02:17:13.482Z,99.90
2018-04-12T02:19:42.391Z,99.90
2018-04-12T02:22:10.517Z,99.90
2018-04-12T02:24:40.188Z,99.90
2018-04-12T02:27:08.306Z,99.90
2018-04-12T02:29:36.449Z,99.90
2018-04-12T02:32:04.572Z,99.90
2018-04-12T02:34:33.481Z,99.90
2018-04-12T02:37:01.620Z,99.90
2018-04-12T02:39:29.761Z,99.90
2018-04-12T02:41:57.876Z,99.60
2018-04-12T02:44:26.785Z,99.80
2018-04-12T02:46:55.671Z,99.90
2018-04-12T02:49:24.580Z,99.90
2018-04-12T02:51:52.734Z,99.90
2018-04-12T02:54:21.642Z,99.90
2018-04-12T02:56:49.753Z,99.90
2018-04-12T02:59:17.900Z,99.50
2018-04-12T03:01:46.026Z,99.40
2018-04-12T03:04:14.164Z,99.30
2018-04-12T03:06:42.274Z,99.30
2018-04-12T03:09:10.417Z,98.90
2018-04-12T03:11:38.540Z,98.90
2018-04-12T03:14:07.446Z,99.60
2018-04-12T03:16:35.567Z,99.60
2018-04-12T03:19:03.708Z,99.90
2018-04-12T03:21:31.820Z,99.20
2018-04-12T03:23:59.974Z,99.30
2018-04-12T03:26:28.087Z,99.40
2018-04-12T03:28:57.001Z,99.30
2018-04-12T03:31:25.116Z,99.30
2018-04-12T03:33:53.270Z,98.50
2018-04-12T03:36:21.399Z,98.80
2018-04-12T03:38:50.302Z,99.10
2018-04-12T03:41:18.434Z,99.10
2018-04-12T03:43:46.579Z,99.40
2018-04-12T03:46:14.694Z,98.70
2018-04-12T03:48:42.906Z,99.40
2018-04-12T03:51:10.978Z,99.40
2018-04-12T03:53:39.127Z,99.70
2018-04-12T03:56:08.012Z,99.20
2018-04-12T03:58:36.150Z,99.20
2018-04-12T04:01:04.290Z,99.70
2018-04-12T04:03:32.441Z,99.20
2018-04-12T04:06:01.327Z,99.70
2018-04-12T04:08:30.250Z,99.60
2018-04-12T04:10:58.391Z,99.50
2018-04-12T04:13:26.547Z,99.50
2018-04-12T04:16:06.570Z,99.30
2018-04-12T04:18:46.605Z,99.20
2018-04-12T04:21:14.721Z,99.80
2018-04-12T04:23:42.861Z,99.60
2018-04-12T04:26:10.977Z,99.80
2018-04-12T04:28:39.102Z,99.40
2018-04-12T04:31:08.097Z,99.00
2018-04-12T04:33:36.212Z,99.00
2018-04-12T04:36:04.392Z,98.70
2018-04-12T04:38:32.511Z,98.80
2018-04-12T04:41:00.654Z,99.30
2018-04-12T04:43:28.769Z,99.10
2018-04-12T04:45:56.909Z,98.60
2018-04-12T04:48:25.788Z,99.20
2018-04-12T04:50:53.947Z,99.20
2018-04-12T04:53:22.057Z,99.60
2018-04-12T04:55:50.962Z,99.70
2018-04-12T04:58:19.082Z,99.90
2018-04-12T05:00:47.210Z,99.90
2018-04-12T05:03:15.338Z,99.90
2018-04-12T05:05:43.480Z,99.90
2018-04-12T05:08:11.611Z,99.80
2018-04-12T05:10:40.206Z,99.00
2018-04-12T05:13:08.326Z,99.30
2018-04-12T05:15:36.556Z,99.50
2018-04-12T05:18:04.620Z,99.50
2018-04-12T05:20:32.769Z,99.00
2018-04-12T05:23:01.423Z,98.20
2018-04-12T05:25:30.035Z,98.20
2018-04-12T05:27:58.183Z,99.10
2018-04-12T05:30:26.337Z,98.90
2018-04-12T05:32:54.456Z,97.40
2018-04-12T05:35:22.596Z,97.20
2018-04-12T05:37:50.709Z,97.50
2018-04-12T05:40:18.893Z,98.10
2018-04-12T05:42:46.999Z,98.60
2018-04-12T05:45:15.127Z,99.30
2018-04-12T05:47:43.773Z,99.50
2018-04-12T05:50:11.931Z,99.50
2018-04-12T05:52:40.055Z,99.40
2018-04-12T05:55:08.990Z,99.40
2018-04-12T05:57:37.108Z,99.40
2018-04-12T06:00:05.242Z,97.70
2018-04-12T06:02:36.038Z,98.00
2018-04-12T06:05:04.202Z,98.00
2018-04-12T06:07:32.315Z,98.20
2018-04-12T06:10:00.577Z,97.40
2018-04-12T06:12:28.728Z,97.10
2018-04-12T06:14:56.893Z,97.10
2018-04-12T06:17:25.015Z,97.50
2018-04-12T06:19:53.154Z,97.10
2018-04-12T06:22:21.275Z,97.30
2018-04-12T06:24:49.432Z,97.10
2018-04-12T06:27:17.563Z,96.90
2018-04-12T06:29:45.695Z,97.30
2018-04-12T06:32:13.824Z,98.20
2018-04-12T06:34:42.474Z,98.30
2018-04-12T06:37:10.595Z,98.50
2018-04-12T06:39:39.506Z,98.70
2018-04-12T06:42:07.623Z,98.60
2018-04-12T06:44:35.766Z,98.60
2018-04-12T06:47:03.889Z,98.00
2018-04-12T06:49:32.030Z,98.20
2018-04-12T06:52:00.970Z,98.60
2018-04-12T06:54:29.890Z,98.40
2018-04-12T06:56:58.026Z,98.40
2018-04-12T06:59:26.909Z,98.70
2018-04-12T07:01:55.436Z,98.50
2018-04-12T07:04:24.538Z,97.90
2018-04-12T07:06:52.806Z,97.90
2018-04-12T07:09:20.962Z,97.80
2018-04-12T07:11:49.878Z,97.20
2018-04-12T07:14:18.001Z,97.20
2018-04-12T07:16:46.124Z,97.70
2018-04-12T07:19:14.291Z,98.20
2018-04-12T07:21:42.409Z,98.10
2018-04-12T07:24:10.548Z,97.60
2018-04-12T07:26:38.677Z,97.50
2018-04-12T07:29:07.638Z,97.40
2018-04-12T07:31:35.764Z,97.40
2018-04-12T07:34:04.632Z,96.90
2018-04-12T07:36:32.766Z,96.90
2018-04-12T07:39:00.878Z,96.80
2018-04-12T07:41:29.786Z,96.70
2018-04-12T07:43:58.667Z,96.20
2018-04-12T07:46:27.590Z,95.70
2018-04-12T07:48:55.711Z,95.60
2018-04-12T07:51:23.849Z,95.10
2018-04-12T07:53:51.990Z,95.40
2018-04-12T07:58:49.514Z,94.40
2018-04-12T08:01:17.772Z,95.20
2018-04-12T08:03:45.904Z,95.60
2018-04-12T08:06:14.811Z,95.50
2018-04-12T08:08:42.929Z,95.50
2018-04-12T08:11:11.064Z,95.80
2018-04-12T08:13:39.172Z,95.40
2018-04-12T08:16:07.373Z,95.00
2018-04-12T08:18:35.490Z,94.50
2018-04-12T08:21:03.640Z,93.90
2018-04-12T08:23:33.713Z,92.80
2018-04-12T08:26:02.758Z,92.20
2018-04-12T08:28:31.640Z,90.20
2018-04-12T08:31:00.546Z,89.30
2018-04-12T08:33:29.419Z,83.60
2018-04-12T08:35:58.438Z,77.20
2018-04-12T08:38:26.552Z,77.20
2018-04-12T08:40:54.687Z,74.90
2018-04-12T08:43:22.799Z,73.90
2018-04-12T08:45:50.966Z,68.60
2018-04-12T08:48:19.088Z,67.70
2018-04-12T08:50:47.998Z,70.70
2018-04-12T08:53:16.228Z,70.70
2018-04-12T08:55:44.358Z,70.00
2018-04-12T08:58:12.468Z,70.60
2018-04-12T09:00:40.634Z,72.20
2018-04-12T09:03:09.250Z,73.90
2018-04-12T09:05:38.151Z,79.60
2018-04-12T09:08:07.046Z,80.50
2018-04-12T09:10:35.945Z,82.70
2018-04-12T09:13:04.052Z,82.70
2018-04-12T09:15:32.193Z,84.30
2018-04-12T09:18:00.350Z,85.50
2018-04-12T09:20:28.483Z,88.40
2018-04-12T09:22:56.610Z,89.20
2018-04-12T09:27:54.889Z,91.20
2018-04-12T09:30:23.790Z,91.50
2018-04-12T09:35:23.867Z,91.90
2018-04-12T09:37:53.419Z,92.00
2018-04-12T09:40:21.557Z,92.40
2018-04-12T09:42:49.679Z,92.60
2018-04-12T09:45:18.552Z,92.30
2018-04-12T09:47:46.698Z,92.30
2018-04-12T09:50:14.812Z,92.50
2018-04-12T09:52:43.728Z,93.00
2018-04-12T09:55:11.846Z,93.00
2018-04-12T09:57:40.000Z,93.10
2018-04-12T10:00:08.127Z,93.20
2018-04-12T10:02:42.427Z,93.10
2018-04-12T10:05:10.532Z,93.00
2018-04-12T10:07:44.329Z,93.10
2018-04-12T10:10:13.222Z,92.40
2018-04-12T10:12:42.110Z,92.30
2018-04-12T10:15:10.994Z,92.40
2018-04-12T10:17:39.907Z,92.10
2018-04-12T10:20:08.067Z,92.10
2018-04-12T10:22:36.993Z,92.30
2018-04-12T10:25:05.119Z,92.30
2018-04-12T10:27:33.257Z,92.70
2018-04-12T10:30:01.384Z,92.30
2018-04-12T10:32:30.277Z,92.00
2018-04-12T10:34:58.398Z,91.90
2018-04-12T10:37:26.534Z,91.10
2018-04-12T10:39:54.649Z,91.00
2018-04-12T10:42:22.789Z,91.40
2018-04-12T10:44:50.900Z,91.10
2018-04-12T10:47:19.108Z,90.80
2018-04-12T10:49:47.997Z,90.70
2018-04-12T10:52:16.903Z,90.00
2018-04-12T10:54:45.013Z,90.00
2018-04-12T10:57:13.145Z,90.40
2018-04-12T10:59:41.267Z,90.10
2018-04-12T11:02:09.403Z,89.30
2018-04-12T11:04:37.533Z,88.40
2018-04-12T11:07:05.679Z,89.10
2018-04-12T11:09:33.792Z,86.20
2018-04-12T11:12:02.692Z,85.10
2018-04-12T11:14:31.565Z,86.60
2018-04-12T11:16:59.693Z,86.60
2018-04-12T11:19:27.804Z,83.70
2018-04-12T11:21:56.293Z,83.20
2018-04-12T11:24:25.002Z,83.80
2018-04-12T11:26:53.898Z,83.40
2018-04-12T11:29:22.049Z,83.30
2018-04-12T11:31:50.172Z,83.40
2018-04-12T11:34:18.321Z,84.70
2018-04-12T11:36:47.209Z,84.50
2018-04-12T11:39:15.331Z,84.50
2018-04-12T11:41:43.460Z,85.40
2018-04-12T11:44:11.571Z,84.90
2018-04-12T11:46:40.846Z,85.60
2018-04-12T11:49:08.962Z,86.30
2018-04-12T11:51:37.108Z,86.70
2018-04-12T11:54:05.221Z,86.50
2018-04-12T11:56:33.357Z,85.60
2018-04-12T11:59:01.487Z,87.00
2018-04-12T12:01:30.395Z,86.70
2018-04-12T12:03:58.508Z,86.70
2018-04-12T12:06:27.435Z,85.90
2018-04-12T12:08:55.554Z,86.60
2018-04-12T12:11:23.788Z,85.20
2018-04-12T12:16:22.855Z,84.60
2018-04-12T12:18:50.957Z,85.50
2018-04-12T12:21:19.146Z,86.70
2018-04-12T12:23:47.361Z,86.40
2018-04-12T12:26:16.223Z,86.70
2018-04-12T12:28:46.336Z,85.70
2018-04-12T12:31:14.469Z,85.70
2018-04-12T12:33:42.602Z,84.60
2018-04-12T12:36:10.767Z,84.90
2018-04-12T12:38:39.696Z,85.20
2018-04-12T12:41:09.783Z,85.20
2018-04-12T12:43:42.357Z,84.80
2018-04-12T12:46:13.467Z,84.00
2018-04-12T12:48:43.763Z,84.40
2018-04-12T12:51:11.882Z,83.60
2018-04-12T12:53:40.024Z,83.80
2018-04-12T12:56:08.210Z,82.80
2018-04-12T12:58:36.923Z,83.30
2018-04-12T13:01:05.042Z,83.70
2018-04-12T13:03:33.179Z,84.70
2018-04-12T13:06:09.000Z,84.70
2018-04-12T13:08:37.133Z,84.70
2018-04-12T13:11:05.255Z,84.40
2018-04-12T13:13:33.389Z,84.90
2018-04-12T13:16:01.499Z,84.70
2018-04-12T13:18:29.625Z,85.20
2018-04-12T13:20:57.731Z,84.40
2018-04-12T13:23:25.884Z,83.10
2018-04-12T13:25:54.000Z,83.10
2018-04-12T13:28:22.148Z,80.60
2018-04-12T13:30:50.306Z,81.40
2018-04-12T13:33:18.473Z,80.10
2018-04-12T13:35:46.578Z,80.90
2018-04-12T13:38:14.708Z,79.70
2018-04-12T13:40:44.520Z,79.80
2018-04-12T13:43:12.653Z,80.30
2018-04-12T13:45:40.774Z,80.50
2018-04-12T13:48:08.907Z,80.10
2018-04-12T13:50:37.021Z,79.20
2018-04-12T13:53:05.157Z,79.20
2018-04-12T13:55:33.287Z,76.30
2018-04-12T13:58:01.505Z,76.00
2018-04-12T14:00:30.407Z,77.80
2018-04-12T14:02:58.533Z,77.70
2018-04-12T14:05:26.655Z,78.60
2018-04-12T14:07:54.791Z,79.60
2018-04-12T14:10:22.914Z,78.40
2018-04-12T14:12:51.829Z,79.30
2018-04-12T14:15:19.939Z,79.30
2018-04-12T14:17:48.073Z,78.80
2018-04-12T14:20:16.182Z,78.60
2018-04-12T14:22:44.318Z,78.70
2018-04-12T14:25:12.429Z,79.00
2018-04-12T14:27:40.570Z,79.00
2018-04-12T14:30:08.693Z,78.40
2018-04-12T14:32:36.832Z,78.50
2018-04-12T14:35:04.943Z,78.70
2018-04-12T14:37:33.083Z,78.20
2018-04-12T14:40:01.221Z,78.70
2018-04-12T14:42:29.369Z,78.10
2018-04-12T14:44:57.487Z,77.20
2018-04-12T14:47:25.706Z,77.30
2018-04-12T14:49:53.795Z,77.30
2018-04-12T14:52:21.941Z,78.40
2018-04-12T14:54:50.081Z,78.40
2018-04-12T14:57:18.245Z,77.00
2018-04-12T14:59:46.358Z,78.20
2018-04-12T15:02:14.490Z,78.60
2018-04-12T15:04:42.801Z,76.80
2018-04-12T15:07:10.945Z,76.50
2018-04-12T15:09:39.070Z,78.50
2018-04-12T15:12:07.203Z,77.50
2018-04-12T15:14:36.569Z,76.00
2018-04-12T15:17:05.720Z,78.00
2018-04-12T15:19:33.824Z,78.00
2018-04-12T15:22:02.020Z,77.50
2018-04-12T15:24:31.448Z,78.40
2018-04-12T15:26:59.595Z,79.10
2018-04-12T15:29:29.818Z,78.90
2018-04-12T15:31:57.971Z,78.80
2018-04-12T15:34:26.114Z,81.30
2018-04-12T15:36:54.216Z,80.30
2018-04-12T15:39:22.350Z,80.20
2018-04-12T15:41:51.289Z,79.60
2018-04-12T15:44:19.445Z,79.60
2018-04-12T15:46:47.570Z,81.20
2018-04-12T15:49:15.807Z,80.90
2018-04-12T15:51:44.008Z,80.40
2018-04-12T15:54:12.906Z,80.00
2018-04-12T15:56:41.031Z,79.90
2018-04-12T15:59:09.158Z,80.60
2018-04-12T16:01:37.269Z,80.60
2018-04-12T16:04:05.449Z,80.90
2018-04-12T16:06:33.591Z,82.10
2018-04-12T16:09:01.773Z,81.20
2018-04-12T16:11:30.324Z,81.40
2018-04-12T16:13:59.722Z,82.00
2018-04-12T16:16:28.600Z,84.90
2018-04-12T16:18:56.734Z,84.80
2018-04-12T16:21:24.859Z,86.90
2018-04-12T16:23:53.878Z,86.30
2018-04-12T16:26:22.006Z,86.30
2018-04-12T16:28:50.147Z,86.30
2018-04-12T16:31:19.146Z,87.00
2018-04-12T16:33:47.380Z,86.80
2018-04-12T16:36:16.266Z,87.30
2018-04-12T16:38:45.168Z,86.90
2018-04-12T16:41:14.151Z,86.90
2018-04-12T16:43:43.056Z,86.70
2018-04-12T16:46:11.853Z,86.70
2018-04-12T16:48:39.997Z,86.30
2018-04-12T16:51:08.114Z,86.70
2018-04-12T16:53:36.257Z,86.00
2018-04-12T16:56:05.134Z,85.00
2018-04-12T16:58:33.262Z,85.00
2018-04-12T17:01:01.411Z,85.00
2018-04-12T17:03:29.529Z,84.50
2018-04-12T17:05:57.656Z,84.90
2018-04-12T17:08:25.790Z,84.50
2018-04-12T17:10:53.931Z,83.90
2018-04-12T17:13:22.045Z,85.70
2018-04-12T17:15:50.187Z,86.30
2018-04-12T17:18:18.293Z,87.30
2018-04-12T17:20:46.434Z,87.40
2018-04-12T17:23:14.549Z,88.00
2018-04-12T17:25:43.453Z,89.80
2018-04-12T17:28:12.333Z,89.00
2018-04-12T17:30:41.239Z,88.80
2018-04-12T17:33:09.378Z,88.70
2018-04-12T17:35:37.512Z,88.50
2018-04-12T17:38:05.706Z,88.60
2018-04-12T17:40:33.846Z,89.50
2018-04-12T17:43:01.957Z,89.60
2018-04-12T17:45:30.472Z,90.20
2018-04-12T17:47:59.351Z,90.70
2018-04-12T17:50:27.503Z,90.70
2018-04-12T17:52:55.612Z,91.00
2018-04-12T17:55:24.514Z,91.70
2018-04-12T17:57:53.412Z,91.80
2018-04-12T18:00:21.547Z,91.80
2018-04-12T18:02:49.717Z,91.90
2018-04-12T18:05:17.848Z,91.70
2018-04-12T18:07:45.960Z,92.10
2018-04-12T18:10:14.121Z,92.50
2018-04-12T18:12:42.243Z,92.50
2018-04-12T18:15:11.151Z,92.80
2018-04-12T18:17:39.265Z,92.80
2018-04-12T18:20:07.402Z,92.80
2018-04-12T18:22:35.523Z,92.80
2018-04-12T18:25:04.339Z,92.90
2018-04-12T18:27:33.520Z,92.80
2018-04-12T18:30:01.654Z,92.80
2018-04-12T18:32:30.984Z,92.80
2018-04-12T18:35:00.018Z,93.60
2018-04-12T18:37:28.982Z,93.80
2018-04-12T18:39:57.138Z,93.80
2018-04-12T18:42:25.245Z,93.90
2018-04-12T18:44:54.155Z,94.00
2018-04-12T18:47:22.295Z,94.00
2018-04-12T18:49:50.437Z,93.80
2018-04-12T18:52:18.552Z,93.80
2018-04-12T18:54:47.436Z,93.30
2018-04-12T18:57:15.573Z,93.30
2018-04-12T18:59:43.693Z,93.20
2018-04-12T19:02:12.594Z,93.70
2018-04-12T19:04:41.482Z,93.80
2018-04-12T19:07:10.396Z,93.80
2018-04-12T19:09:38.505Z,93.80
2018-04-12T19:12:06.649Z,93.90
2018-04-12T19:14:34.767Z,93.80
2018-04-12T19:17:02.920Z,93.70
2018-04-12T19:19:31.024Z,93.70
2018-04-12T19:21:59.175Z,93.60
2018-04-12T19:24:27.275Z,93.70
2018-04-12T19:26:56.363Z,93.90
2018-04-12T19:29:24.473Z,93.50
2018-04-12T19:31:52.622Z,93.60
2018-04-12T19:34:21.501Z,93.70
2018-04-12T19:36:49.640Z,93.40
2018-04-12T19:39:17.770Z,94.20
2018-04-12T19:41:46.661Z,94.70
2018-04-12T19:44:15.586Z,94.90
2018-04-12T19:46:43.730Z,94.80
2018-04-12T19:49:11.851Z,94.90
2018-04-12T19:51:39.981Z,94.60
2018-04-12T19:54:08.095Z,94.50
2018-04-12T19:56:36.247Z,94.40
2018-04-12T19:59:04.347Z,94.80
2018-04-12T20:01:32.501Z,95.20
2018-04-12T20:04:00.626Z,94.70
2018-04-12T20:06:29.542Z,94.90
2018-04-12T20:08:57.776Z,94.80
2018-04-12T20:11:25.913Z,94.90
2018-04-12T20:13:54.065Z,94.90
2018-04-12T20:16:22.212Z,94.40
2018-04-12T20:18:51.098Z,94.30
2018-04-12T20:21:19.235Z,94.60
2018-04-12T20:23:47.355Z,94.80
2018-04-12T20:26:16.265Z,94.50
2018-04-12T20:28:44.383Z,94.50
2018-04-12T20:31:12.518Z,94.60
2018-04-12T20:33:40.629Z,94.60
2018-04-12T20:36:08.770Z,94.60
2018-04-12T20:38:36.890Z,94.60
2018-04-12T20:41:05.029Z,94.60
2018-04-12T20:43:33.151Z,94.80
2018-04-12T20:46:02.060Z,94.50
2018-04-12T20:48:30.947Z,95.00
2018-04-12T20:50:59.848Z,95.10
2018-04-12T20:53:27.958Z,95.10
2018-04-12T20:55:56.092Z,95.10
2018-04-12T20:58:24.201Z,95.10
2018-04-12T21:00:52.805Z,95.10
2018-04-12T21:03:20.921Z,95.00
2018-04-12T21:05:49.811Z,94.80
2018-04-12T21:08:18.050Z,94.70
2018-04-12T21:10:46.869Z,95.00
2018-04-12T21:13:15.769Z,95.40
2018-04-12T21:15:44.655Z,95.70
2018-04-12T21:18:13.538Z,95.80
2018-04-12T21:20:42.451Z,96.00
2018-04-12T21:23:10.570Z,96.00
2018-04-12T21:25:38.710Z,96.40
2018-04-12T21:28:06.854Z,96.20
2018-04-12T21:30:35.739Z,95.80
2018-04-12T21:33:04.651Z,96.00
2018-04-12T21:35:32.767Z,95.60
2018-04-12T21:38:00.913Z,96.00
2018-04-12T21:40:29.036Z,95.60
2018-04-12T21:42:57.161Z,95.40
2018-04-12T21:45:25.287Z,95.50
2018-04-12T21:47:53.438Z,95.60
2018-04-12T21:50:21.558Z,95.80
2018-04-12T21:52:49.712Z,95.40
2018-04-12T21:55:18.590Z,95.50
2018-04-12T21:57:46.739Z,95.50
2018-04-12T22:00:14.862Z,95.80
2018-04-12T22:02:42.994Z,95.80
2018-04-12T22:05:11.110Z,95.70
2018-04-12T22:07:40.000Z,96.10
2018-04-12T22:10:08.888Z,95.70
2018-04-12T22:12:37.788Z,95.30
2018-04-12T22:15:06.680Z,95.30
2018-04-12T22:17:34.832Z,95.30
2018-04-12T22:20:02.945Z,95.70
2018-04-12T22:22:31.122Z,96.10
2018-04-12T22:24:59.317Z,96.10
2018-04-12T22:27:27.502Z,96.00
2018-04-12T22:29:55.610Z,96.10
2018-04-12T22:32:24.533Z,96.40
2018-04-12T22:34:52.640Z,96.30
2018-04-12T22:37:21.563Z,96.40
2018-04-12T22:39:49.682Z,96.40
2018-04-12T22:42:17.815Z,96.50
2018-04-12T22:44:46.693Z,96.60
2018-04-12T22:47:14.836Z,96.60
2018-04-12T22:49:42.951Z,96.20
2018-04-12T22:52:11.857Z,95.30
2018-04-12T22:54:40.742Z,93.90
2018-04-12T22:57:09.659Z,92.20
2018-04-12T22:59:37.770Z,92.20
2018-04-12T23:02:06.679Z,88.80
2018-04-12T23:04:34.791Z,88.80
2018-04-12T23:07:02.933Z,89.70
2018-04-12T23:09:31.050Z,85.90
2018-04-12T23:11:59.258Z,84.40
2018-04-12T23:14:27.374Z,83.40
2018-04-12T23:16:55.519Z,82.50
2018-04-12T23:19:23.616Z,80.90
2018-04-12T23:21:51.752Z,81.80
2018-04-12T23:24:19.874Z,80.90
2018-04-12T23:26:48.008Z,80.40
2018-04-12T23:29:16.113Z,79.60
2018-04-12T23:31:44.246Z,80.30
2018-04-12T23:34:12.344Z,80.90
2018-04-12T23:36:40.494Z,79.10
2018-04-12T23:39:08.607Z,81.10
2018-04-12T23:41:36.737Z,81.30
2018-04-12T23:44:04.846Z,82.60
2018-04-12T23:46:33.728Z,84.10
2018-04-12T23:49:02.617Z,85.80
2018-04-12T23:51:31.526Z,86.40
2018-04-12T23:53:59.624Z,86.40
2018-04-12T23:56:27.787Z,87.40
2018-04-12T23:58:55.902Z,88.20
